Seastreak Highlands — WDE4031 — position and weather

sailwx.info

Track history (hours):
 
Tides and Currents Weather Stations Pressure Air Temp Water Temp Dewpoint Dewpoint Depression Visibility Wind Speed Wind Dir Waves Ship Positions

Seastreak Highlands

Owner: Seastreak llc, atlantic highlands, NJ. More information available from US FCC via Universal Licensing System and Coast Guard Vessel Documentation Center.

Last reported at 2018-Jan-20 01:36 UTC. Time now 2018-Jan-21 05:00 UTC.
Position N 40°25' W 073°60'.

Length 44 m.

Type: High speed craft. MMSI: 367347670.

Date/timePositionNaut miles runAvg speedWind from/ knotsBaromVisibWave heightAir tempDewpointWater temp
2018-Jan-20 01:36N 40°25' W 073°60'1 9.7
2018-Jan-20 01:29N 40°25' W 074°01'1021.8
2018-Jan-20 01:00N 40°36' W 074°03'1018.8
2018-Jan-20 00:30N 40°45' W 073°58'1122.9
2018-Jan-20 00:00N 40°34' W 074°02'1017.4
2018-Jan-19 23:28N 40°25' W 073°60'4 8.6
2018-Jan-19 23:00N 40°28' W 074°02'1428.6
2018-Jan-19 22:30N 40°42' W 074°00'3 5.9
2018-Jan-19 22:00N 40°45' W 073°58'1019.8
2018-Jan-19 21:30N 40°35' W 074°03'1019.8
2018-Jan-19 21:00N 40°25' W 074°01'2 3.1
2018-Jan-19 20:30N 40°27' W 074°01'1530.7
2018-Jan-19 20:00N 40°42' W 074°00'3 6.0
2018-Jan-19 19:30N 40°45' W 073°58'0 0.0
2018-Jan-19 19:00N 40°45' W 073°58'0 0.0
2018-Jan-19 18:30N 40°45' W 073°58'0 0.0
2018-Jan-19 17:59N 40°45' W 073°58'0 0.0
2018-Jan-19 17:30N 40°45' W 073°58'0 0.0
2018-Jan-19 17:00N 40°45' W 073°58'0 0.0
2018-Jan-19 16:29N 40°45' W 073°58'0 0.0
2018-Jan-19 16:00N 40°45' W 073°58'0 0.0
2018-Jan-19 15:30N 40°45' W 073°58'0 0.0
2018-Jan-19 14:57N 40°45' W 073°58'613.6
2018-Jan-19 14:31N 40°39' W 074°02'1427.8
2018-Jan-19 14:00N 40°25' W 074°02'1121.7
2018-Jan-19 13:30N 40°36' W 074°02'918.1
2018-Jan-19 13:00N 40°45' W 073°58'918.9
2018-Jan-19 12:30N 40°36' W 074°03'1121.0
2018-Jan-19 12:00N 40°25' W 074°02'2 3.7
2018-Jan-19 11:30N 40°25' W 073°60'0 0.1
2018-Jan-19 11:00N 40°25' W 073°60'0 0.0
2018-Jan-19 01:46N 40°25' W 073°60'2 6.9
2018-Jan-19 01:30N 40°25' W 074°02'1325.2
2018-Jan-19 01:00N 40°38' W 074°03'714.6
2018-Jan-19 00:29N 40°45' W 073°58'918.5
2018-Jan-19 00:00N 40°36' W 074°03'1223.5
2018-Jan-18 23:30N 40°25' W 073°60'611.3
2018-Jan-18 22:55N 40°31' W 074°02'1227.7
2018-Jan-18 22:30N 40°42' W 074°00'2 3.7
2018-Jan-18 22:00N 40°43' W 073°58'1528.6
2018-Jan-18 21:29N 40°28' W 074°02'4 7.5
2018-Jan-18 20:57N 40°25' W 073°60'2 4.8
2018-Jan-18 20:28N 40°27' W 074°01'1533.1
2018-Jan-18 20:00N 40°42' W 074°00'3 5.9
2018-Jan-18 19:30N 40°45' W 073°58'0 0.0
2018-Jan-18 19:00N 40°45' W 073°58'0 0.0
2018-Jan-18 18:29N 40°45' W 073°58'0 0.1
2018-Jan-18 18:00N 40°45' W 073°58'0 0.1
2018-Jan-18 17:30N 40°45' W 073°58'0 0.0
2018-Jan-18 16:58N 40°45' W 073°58'0 0.0
2018-Jan-18 16:30N 40°45' W 073°58'0 0.0
2018-Jan-18 16:00N 40°45' W 073°58'0 0.0
2018-Jan-18 15:30N 40°45' W 073°58'1 1.1
2018-Jan-18 14:57N 40°44' W 073°58'715.5
2018-Jan-18 14:30N 40°38' W 074°03'1324.5
2018-Jan-18 13:59N 40°25' W 074°02'1122.9
2018-Jan-18 13:30N 40°36' W 074°03'816.3
2018-Jan-18 13:00N 40°43' W 073°58'19 1.7
2018-Jan-18 01:48N 40°25' W 073°60'2 5.5
2018-Jan-18 01:27N 40°25' W 074°02'1125.7
2018-Jan-18 01:00N 40°37' W 074°03'2 1.5
2018-Jan-18 00:00N 40°35' W 074°02'233.1
2018-Jan-17 23:57N 40°33' W 074°02'  
2018-Jan-12 14:48N 40°29' W 074°02'1033.3
2018-Jan-12 14:30N 40°39' W 074°02'4 7.3
2018-Jan-12 14:00N 40°42' W 074°00'1122.9
2018-Jan-12 13:31N 40°31' W 074°02'2 2.7
2018-Jan-12 12:56N 40°29' W 074°02'1126.7
2018-Jan-12 12:30N 40°40' W 074°01'2 3.8
2018-Jan-12 12:01N 40°42' W 074°00'1223.9
2018-Jan-12 11:30N 40°30' W 074°02'5 0.6
2018-Jan-12 02:34N 40°25' W 074°02'11 8.0
2018-Jan-12 01:11N 40°36' W 074°03'530.3
2018-Jan-12 01:01N 40°42' W 074°01'1 2.8
2018-Jan-12 00:30N 40°42' W 073°60'6 3.7
2018-Jan-11 22:45N 40°36' W 074°03'624.7
2018-Jan-11 22:30N 40°42' W 074°00'3 0.4
2018-Jan-11 15:05N 40°45' W 073°58'118.3
2018-Jan-11 15:00N 40°43' W 073°58'7 2.8
2018-Jan-11 12:38N 40°38' W 074°03'434.3
2018-Jan-11 12:31N 40°42' W 074°00'1 1.2
2018-Jan-11 12:00N 40°42' W 074°00'14 1.3
2018-Jan-11 01:15N 40°28' W 074°02'827.3
2018-Jan-11 00:57N 40°36' W 074°03'913.0
2018-Jan-11 00:15N 40°45' W 073°58'626.8
2018-Jan-11 00:01N 40°39' W 074°02'3 2.1
2018-Jan-10 22:46N 40°36' W 074°03'623.5
2018-Jan-10 22:30N 40°42' W 074°00'3 0.4
2018-Jan-10 14:27N 40°45' W 073°58'918.4
2018-Jan-10 13:58N 40°36' W 074°03'2 1.1
2018-Jan-10 12:30N 40°38' W 074°03'4 8.9
2018-Jan-10 12:00N 40°42' W 074°00'  
Track history (hours):
 
Tides and Currents Weather Stations Pressure Air Temp Water Temp Dewpoint Dewpoint Depression Visibility Wind Speed Wind Dir Waves Ship Positions

Seastreak Highlands

Owner: Seastreak llc, atlantic highlands, NJ. More information available from US FCC via Universal Licensing System and Coast Guard Vessel Documentation Center.

Last reported at 2018-Jan-20 01:36 UTC. Time now 2018-Jan-21 05:00 UTC.
Position N 40°25' W 073°60'.

Length 44 m.

Type: High speed craft. MMSI: 367347670.

Date/timePositionNaut miles runAvg speedWind from/ knotsBaromVisibWave heightAir tempDewpointWater temp
2018-Jan-20 01:36N 40°25' W 073°60'1 9.7
2018-Jan-20 01:29N 40°25' W 074°01'1021.8
2018-Jan-20 01:00N 40°36' W 074°03'1018.8
2018-Jan-20 00:30N 40°45' W 073°58'1122.9
2018-Jan-20 00:00N 40°34' W 074°02'1017.4
2018-Jan-19 23:28N 40°25' W 073°60'4 8.6
2018-Jan-19 23:00N 40°28' W 074°02'1428.6
2018-Jan-19 22:30N 40°42' W 074°00'3 5.9
2018-Jan-19 22:00N 40°45' W 073°58'1019.8
2018-Jan-19 21:30N 40°35' W 074°03'1019.8
2018-Jan-19 21:00N 40°25' W 074°01'2 3.1
2018-Jan-19 20:30N 40°27' W 074°01'1530.7
2018-Jan-19 20:00N 40°42' W 074°00'3 6.0
2018-Jan-19 19:30N 40°45' W 073°58'0 0.0
2018-Jan-19 19:00N 40°45' W 073°58'0 0.0
2018-Jan-19 18:30N 40°45' W 073°58'0 0.0
2018-Jan-19 17:59N 40°45' W 073°58'0 0.0
2018-Jan-19 17:30N 40°45' W 073°58'0 0.0
2018-Jan-19 17:00N 40°45' W 073°58'0 0.0
2018-Jan-19 16:29N 40°45' W 073°58'0 0.0
2018-Jan-19 16:00N 40°45' W 073°58'0 0.0
2018-Jan-19 15:30N 40°45' W 073°58'0 0.0
2018-Jan-19 14:57N 40°45' W 073°58'613.6
2018-Jan-19 14:31N 40°39' W 074°02'1427.8
2018-Jan-19 14:00N 40°25' W 074°02'1121.7
2018-Jan-19 13:30N 40°36' W 074°02'918.1
2018-Jan-19 13:00N 40°45' W 073°58'918.9
2018-Jan-19 12:30N 40°36' W 074°03'1121.0
2018-Jan-19 12:00N 40°25' W 074°02'2 3.7
2018-Jan-19 11:30N 40°25' W 073°60'0 0.1
2018-Jan-19 11:00N 40°25' W 073°60'0 0.0
2018-Jan-19 01:46N 40°25' W 073°60'2 6.9
2018-Jan-19 01:30N 40°25' W 074°02'1325.2
2018-Jan-19 01:00N 40°38' W 074°03'714.6
2018-Jan-19 00:29N 40°45' W 073°58'918.5
2018-Jan-19 00:00N 40°36' W 074°03'1223.5
2018-Jan-18 23:30N 40°25' W 073°60'611.3
2018-Jan-18 22:55N 40°31' W 074°02'1227.7
2018-Jan-18 22:30N 40°42' W 074°00'2 3.7
2018-Jan-18 22:00N 40°43' W 073°58'1528.6
2018-Jan-18 21:29N 40°28' W 074°02'4 7.5
2018-Jan-18 20:57N 40°25' W 073°60'2 4.8
2018-Jan-18 20:28N 40°27' W 074°01'1533.1
2018-Jan-18 20:00N 40°42' W 074°00'3 5.9
2018-Jan-18 19:30N 40°45' W 073°58'0 0.0
2018-Jan-18 19:00N 40°45' W 073°58'0 0.0
2018-Jan-18 18:29N 40°45' W 073°58'0 0.1
2018-Jan-18 18:00N 40°45' W 073°58'0 0.1
2018-Jan-18 17:30N 40°45' W 073°58'0 0.0
2018-Jan-18 16:58N 40°45' W 073°58'0 0.0
2018-Jan-18 16:30N 40°45' W 073°58'0 0.0
2018-Jan-18 16:00N 40°45' W 073°58'0 0.0
2018-Jan-18 15:30N 40°45' W 073°58'1 1.1
2018-Jan-18 14:57N 40°44' W 073°58'715.5
2018-Jan-18 14:30N 40°38' W 074°03'1324.5
2018-Jan-18 13:59N 40°25' W 074°02'1122.9
2018-Jan-18 13:30N 40°36' W 074°03'816.3
2018-Jan-18 13:00N 40°43' W 073°58'19 1.7
2018-Jan-18 01:48N 40°25' W 073°60'2 5.5
2018-Jan-18 01:27N 40°25' W 074°02'1125.7
2018-Jan-18 01:00N 40°37' W 074°03'2 1.5
2018-Jan-18 00:00N 40°35' W 074°02'233.1
2018-Jan-17 23:57N 40°33' W 074°02'  
2018-Jan-12 14:48N 40°29' W 074°02'1033.3
2018-Jan-12 14:30N 40°39' W 074°02'4 7.3
2018-Jan-12 14:00N 40°42' W 074°00'1122.9
2018-Jan-12 13:31N 40°31' W 074°02'2 2.7
2018-Jan-12 12:56N 40°29' W 074°02'1126.7
2018-Jan-12 12:30N 40°40' W 074°01'2 3.8
2018-Jan-12 12:01N 40°42' W 074°00'1223.9
2018-Jan-12 11:30N 40°30' W 074°02'5 0.6
2018-Jan-12 02:34N 40°25' W 074°02'11 8.0
2018-Jan-12 01:11N 40°36' W 074°03'530.3
2018-Jan-12 01:01N 40°42' W 074°01'1 2.8
2018-Jan-12 00:30N 40°42' W 073°60'6 3.7
2018-Jan-11 22:45N 40°36' W 074°03'624.7
2018-Jan-11 22:30N 40°42' W 074°00'3 0.4
2018-Jan-11 15:05N 40°45' W 073°58'118.3
2018-Jan-11 15:00N 40°43' W 073°58'7 2.8
2018-Jan-11 12:38N 40°38' W 074°03'434.3
2018-Jan-11 12:31N 40°42' W 074°00'1 1.2
2018-Jan-11 12:00N 40°42' W 074°00'14 1.3
2018-Jan-11 01:15N 40°28' W 074°02'827.3
2018-Jan-11 00:57N 40°36' W 074°03'913.0
2018-Jan-11 00:15N 40°45' W 073°58'626.8
2018-Jan-11 00:01N 40°39' W 074°02'3 2.1
2018-Jan-10 22:46N 40°36' W 074°03'623.5
2018-Jan-10 22:30N 40°42' W 074°00'3 0.4
2018-Jan-10 14:27N 40°45' W 073°58'918.4
2018-Jan-10 13:58N 40°36' W 074°03'2 1.1
2018-Jan-10 12:30N 40°38' W 074°03'4 8.9
2018-Jan-10 12:00N 40°42' W 074°00'  

Dump ship's entire track history